createdAt,value
2022-09-11T00:01:16.563Z,1.98
2022-09-11T00:03:44.806Z,2.10
2022-09-11T00:06:14.419Z,2.30
2022-09-11T00:08:42.595Z,4.45
2022-09-11T00:11:17.435Z,4.25
2022-09-11T00:13:47.131Z,6.15
2022-09-11T00:16:24.370Z,4.57
2022-09-11T00:18:51.429Z,3.03
2022-09-11T00:21:18.681Z,5.50
2022-09-11T00:23:45.545Z,4.22
2022-09-11T00:26:12.553Z,2.42
2022-09-11T00:28:39.392Z,2.92
2022-09-11T00:31:12.641Z,2.90
2022-09-11T00:33:40.009Z,3.67
2022-09-11T00:36:13.076Z,3.95
2022-09-11T00:38:40.359Z,3.60
2022-09-11T00:41:11.333Z,4.15
2022-09-11T00:43:53.502Z,4.70
2022-09-11T00:46:21.949Z,4.00
2022-09-11T00:48:50.136Z,4.30
2022-09-11T00:51:26.847Z,4.30
2022-09-11T00:53:54.792Z,4.57
2022-09-11T00:56:23.402Z,5.53
2022-09-11T00:58:51.818Z,4.32
2022-09-11T01:01:18.857Z,4.18
2022-09-11T01:03:46.219Z,3.10
2022-09-11T01:06:13.862Z,4.97
2022-09-11T01:08:40.915Z,3.13
2022-09-11T01:11:30.346Z,5.55
2022-09-11T01:14:15.602Z,2.65
2022-09-11T01:17:18.206Z,3.10
2022-09-11T01:20:10.008Z,3.30
2022-09-11T01:23:25.639Z,4.03
2022-09-11T01:26:14.495Z,3.90
2022-09-11T01:29:18.076Z,4.10
2022-09-11T01:31:54.956Z,6.68
2022-09-11T01:34:43.262Z,6.63
2022-09-11T01:37:17.688Z,4.50
2022-09-11T01:39:57.683Z,3.30
2022-09-11T01:42:25.136Z,3.22
2022-09-11T01:44:54.864Z,3.13
2022-09-11T01:47:22.250Z,3.28
2022-09-11T01:49:56.642Z,3.28
2022-09-11T01:52:31.056Z,3.33
2022-09-11T01:55:01.824Z,3.63
2022-09-11T01:57:47.967Z,3.03
2022-09-11T02:00:16.429Z,2.72
2022-09-11T02:02:47.806Z,2.38
2022-09-11T02:05:23.824Z,2.80
2022-09-11T02:08:09.356Z,2.83
2022-09-11T02:10:54.967Z,2.42
2022-09-11T02:13:27.609Z,2.40
2022-09-11T02:16:04.282Z,2.35
2022-09-11T02:19:05.044Z,3.20
2022-09-11T02:21:33.036Z,2.47
2022-09-11T02:24:01.799Z,6.93
2022-09-11T02:26:31.088Z,3.28
2022-09-11T02:28:58.032Z,3.30
2022-09-11T02:31:25.518Z,3.25
2022-09-11T02:33:54.940Z,3.63
2022-09-11T02:36:38.801Z,5.35
2022-09-11T02:39:27.505Z,3.63
2022-09-11T02:42:16.067Z,3.38
2022-09-11T02:44:49.756Z,4.78
2022-09-11T02:47:43.267Z,3.80
2022-09-11T02:50:36.685Z,3.38
2022-09-11T02:53:11.035Z,3.08
2022-09-11T02:56:17.091Z,3.10
2022-09-11T02:58:48.594Z,2.88
2022-09-11T03:01:15.916Z,2.40
2022-09-11T03:03:46.340Z,3.22
2022-09-11T03:06:16.293Z,4.07
2022-09-11T03:08:43.319Z,3.45
2022-09-11T03:11:11.345Z,2.75
2022-09-11T03:13:38.278Z,2.47
2022-09-11T03:16:05.912Z,2.50
2022-09-11T03:18:33.222Z,2.15
2022-09-11T03:21:01.207Z,1.73
2022-09-11T03:23:28.513Z,4.70
2022-09-11T03:25:55.667Z,1.75
2022-09-11T03:28:23.538Z,2.13
2022-09-11T03:30:52.986Z,1.83
2022-09-11T03:33:20.293Z,2.92
2022-09-11T03:35:47.327Z,2.67
2022-09-11T03:38:15.994Z,2.80
2022-09-11T03:40:44.355Z,3.03
2022-09-11T03:43:12.548Z,2.88
2022-09-11T03:45:39.877Z,2.38
2022-09-11T03:48:08.739Z,3.05
2022-09-11T03:50:35.614Z,6.50
2022-09-11T03:53:02.867Z,4.35
2022-09-11T03:55:31.697Z,3.78
2022-09-11T03:57:59.767Z,3.05
2022-09-11T04:00:27.319Z,5.30
2022-09-11T04:02:56.642Z,2.35
2022-09-11T04:05:38.310Z,2.15
2022-09-11T04:08:06.397Z,1.58
2022-09-11T04:10:34.795Z,2.10
2022-09-11T04:13:02.912Z,1.65
2022-09-11T04:15:29.729Z,1.90
2022-09-11T04:17:56.767Z,2.15
2022-09-11T04:20:24.310Z,2.05
2022-09-11T04:22:52.586Z,2.00
2022-09-11T04:25:20.462Z,2.72
2022-09-11T04:27:47.747Z,2.53
2022-09-11T04:30:16.453Z,3.22
2022-09-11T04:32:43.396Z,3.25
2022-09-11T04:35:10.985Z,2.58
2022-09-11T04:37:46.850Z,2.60
2022-09-11T04:40:14.376Z,2.95
2022-09-11T04:42:44.146Z,2.95
2022-09-11T04:45:11.209Z,3.45
2022-09-11T04:47:38.370Z,2.97
2022-09-11T04:50:05.596Z,2.95
2022-09-11T04:52:34.276Z,2.65
2022-09-11T04:55:02.001Z,2.70
2022-09-11T04:57:32.119Z,3.00
2022-09-11T05:00:00.209Z,2.90
2022-09-11T05:02:28.193Z,2.80
2022-09-11T05:04:55.162Z,4.07
2022-09-11T05:07:22.522Z,2.50
2022-09-11T05:09:54.464Z,2.13
2022-09-11T05:12:21.924Z,2.10
2022-09-11T05:14:48.775Z,1.73
2022-09-11T05:17:15.797Z,2.25
2022-09-11T05:19:43.663Z,1.75
2022-09-11T05:22:10.773Z,1.45
2022-09-11T05:24:42.070Z,1.95
2022-09-11T05:27:09.733Z,2.67
2022-09-11T05:29:39.262Z,1.65
2022-09-11T05:32:12.776Z,3.95
2022-09-11T05:34:41.224Z,2.28
2022-09-11T05:37:10.936Z,1.90
2022-09-11T05:39:43.227Z,1.70
2022-09-11T05:42:12.089Z,1.50
2022-09-11T05:44:42.488Z,1.67
2022-09-11T05:47:10.109Z,1.17
2022-09-11T05:49:38.016Z,1.90
2022-09-11T05:52:04.968Z,2.45
2022-09-11T05:54:35.031Z,1.48
2022-09-11T05:57:07.580Z,1.20
2022-09-11T05:59:37.943Z,1.50
2022-09-11T06:02:05.196Z,1.45
2022-09-11T06:04:40.776Z,2.55
2022-09-11T06:07:08.739Z,1.63
2022-09-11T06:09:36.362Z,1.90
2022-09-11T06:12:03.670Z,1.75
2022-09-11T06:14:30.586Z,2.55
2022-09-11T06:16:57.475Z,1.55
2022-09-11T06:19:26.401Z,1.50
2022-09-11T06:21:53.526Z,1.20
2022-09-11T06:24:28.318Z,4.25
2022-09-11T06:26:56.568Z,1.63
2022-09-11T06:29:25.029Z,2.38
2022-09-11T06:31:52.973Z,2.00
2022-09-11T06:34:23.398Z,1.73
2022-09-11T06:36:52.267Z,4.82
2022-09-11T06:39:23.306Z,1.80
2022-09-11T06:41:52.627Z,1.83
2022-09-11T06:44:27.439Z,1.83
2022-09-11T06:46:57.470Z,1.42
2022-09-11T06:49:24.910Z,1.83
2022-09-11T06:52:10.422Z,1.02
2022-09-11T06:54:38.371Z,2.67
2022-09-11T06:57:09.895Z,1.10
2022-09-11T06:59:37.002Z,1.52
2022-09-11T07:02:05.421Z,1.33
2022-09-11T07:04:32.576Z,1.88
2022-09-11T07:07:00.067Z,0.82
2022-09-11T07:09:28.066Z,1.15
2022-09-11T07:11:57.070Z,1.33
2022-09-11T07:14:26.633Z,1.85
2022-09-11T07:17:01.398Z,1.65
2022-09-11T07:19:28.744Z,1.00
2022-09-11T07:21:55.566Z,1.15
2022-09-11T07:24:25.545Z,1.13
2022-09-11T07:26:54.929Z,1.60
2022-09-11T07:29:28.956Z,0.95
2022-09-11T07:31:58.651Z,1.52
2022-09-11T07:34:26.540Z,2.60
2022-09-11T07:36:53.412Z,1.10
2022-09-11T07:39:24.013Z,2.25
2022-09-11T07:41:56.896Z,1.58
2022-09-11T07:44:28.125Z,1.30
2022-09-11T07:46:55.902Z,1.38
2022-09-11T07:49:23.600Z,1.67
2022-09-11T07:51:52.000Z,1.45
2022-09-11T07:54:29.106Z,3.35
2022-09-11T07:56:57.974Z,3.38
2022-09-11T07:59:24.926Z,1.52
2022-09-11T08:01:53.388Z,2.80
2022-09-11T08:04:21.243Z,3.25
2022-09-11T08:06:48.925Z,1.35
2022-09-11T08:09:21.355Z,1.35
2022-09-11T08:11:55.894Z,2.50
2022-09-11T08:14:24.778Z,1.90
2022-09-11T08:16:54.407Z,1.60
2022-09-11T08:19:23.777Z,1.85
2022-09-11T08:21:55.379Z,3.13
2022-09-11T08:24:22.701Z,2.58
2022-09-11T08:26:51.978Z,3.15
2022-09-11T08:29:20.055Z,1.52
2022-09-11T08:31:48.500Z,1.30
2022-09-11T08:34:17.262Z,2.03
2022-09-11T08:36:45.062Z,1.98
2022-09-11T08:39:12.375Z,3.35
2022-09-11T08:41:48.953Z,2.05
2022-09-11T08:44:27.822Z,3.30
2022-09-11T08:47:08.480Z,3.05
2022-09-11T08:49:43.015Z,2.20
2022-09-11T08:52:13.668Z,6.47
2022-09-11T08:54:42.030Z,4.35
2022-09-11T08:57:35.094Z,5.57
2022-09-11T09:00:22.255Z,3.45
2022-09-11T09:03:46.965Z,6.82
2022-09-11T09:06:21.627Z,4.90
2022-09-11T09:08:55.480Z,4.70
2022-09-11T09:11:37.324Z,2.92
2022-09-11T09:14:24.728Z,4.22
2022-09-11T09:17:03.854Z,3.97
2022-09-11T09:19:45.165Z,3.17
2022-09-11T09:22:38.458Z,3.38
2022-09-11T09:25:11.193Z,3.85
2022-09-11T09:28:25.484Z,4.35
2022-09-11T09:31:01.320Z,2.53
2022-09-11T09:33:41.940Z,4.72
2022-09-11T09:36:14.459Z,4.13
2022-09-11T09:38:41.843Z,7.15
2022-09-11T09:41:59.062Z,4.60
2022-09-11T09:44:50.567Z,4.18
2022-09-11T09:47:18.003Z,7.35
2022-09-11T09:49:45.081Z,4.32
2022-09-11T09:52:24.529Z,5.53
2022-09-11T09:54:57.413Z,4.15
2022-09-11T09:57:27.642Z,6.28
2022-09-11T10:00:04.781Z,6.90
2022-09-11T10:02:45.482Z,6.25
2022-09-11T10:05:17.045Z,3.40
2022-09-11T10:07:56.818Z,6.05
2022-09-11T10:10:32.732Z,6.03
2022-09-11T10:13:18.934Z,7.90
2022-09-11T10:15:49.669Z,7.72
2022-09-11T10:18:32.340Z,6.80
2022-09-11T10:21:11.354Z,6.05
2022-09-11T10:23:55.045Z,5.97
2022-09-11T10:26:39.119Z,9.68
2022-09-11T10:29:09.964Z,8.75
2022-09-11T10:31:40.269Z,8.65
2022-09-11T10:34:14.868Z,8.35
2022-09-11T10:37:15.090Z,10.55
2022-09-11T10:39:44.504Z,8.57
2022-09-11T10:42:18.230Z,16.52
2022-09-11T10:44:46.075Z,20.63
2022-09-11T10:47:19.028Z,9.65
2022-09-11T10:49:47.155Z,5.50
2022-09-11T10:52:13.927Z,6.10
2022-09-11T10:54:41.260Z,5.20
2022-09-11T10:57:08.237Z,8.45
2022-09-11T10:59:41.574Z,7.55
2022-09-11T11:02:23.759Z,3.67
2022-09-11T11:04:51.132Z,4.97
2022-09-11T11:07:53.650Z,7.45
2022-09-11T11:10:48.505Z,10.30
2022-09-11T11:13:26.454Z,8.95
2022-09-11T11:16:04.907Z,9.02
2022-09-11T11:18:42.814Z,7.85
2022-09-11T11:21:12.973Z,4.90
2022-09-11T11:24:02.568Z,6.28
2022-09-11T11:26:45.256Z,5.25
2022-09-11T11:29:25.518Z,7.65
2022-09-11T11:32:22.994Z,7.55
2022-09-11T11:35:18.319Z,7.35
2022-09-11T11:37:47.272Z,5.25
2022-09-11T11:40:35.632Z,7.93
2022-09-11T11:43:13.707Z,3.83
2022-09-11T11:45:46.188Z,4.63
2022-09-11T11:48:17.323Z,7.05
2022-09-11T11:50:47.469Z,6.00
2022-09-11T11:53:23.239Z,4.63
2022-09-11T11:56:02.329Z,5.47
2022-09-11T11:58:53.082Z,5.18
2022-09-11T12:01:31.486Z,6.10
2022-09-11T12:04:17.546Z,5.88
2022-09-11T12:06:44.600Z,10.18
2022-09-11T12:09:14.739Z,10.45
2022-09-11T12:11:43.779Z,6.03
2022-09-11T12:14:26.263Z,7.47
2022-09-11T12:16:53.712Z,6.13
2022-09-11T12:19:22.353Z,5.38
2022-09-11T12:21:52.313Z,6.85
2022-09-11T12:24:26.791Z,5.82
2022-09-11T12:27:34.569Z,4.80
2022-09-11T12:30:16.524Z,8.45
2022-09-11T12:32:43.660Z,5.20
2022-09-11T12:35:46.663Z,6.32
2022-09-11T12:38:26.979Z,8.02
2022-09-11T12:40:54.149Z,7.32
2022-09-11T12:43:30.391Z,6.82
2022-09-11T12:45:57.398Z,7.13
2022-09-11T12:49:00.270Z,7.93
2022-09-11T12:51:35.398Z,6.50
2022-09-11T12:54:13.136Z,6.32
2022-09-11T12:56:47.574Z,6.93
2022-09-11T12:59:24.258Z,8.98
2022-09-11T13:01:52.504Z,5.72
2022-09-11T13:04:22.584Z,5.45
2022-09-11T13:07:32.365Z,5.75
2022-09-11T13:10:08.130Z,5.93
2022-09-11T13:12:34.859Z,6.85
2022-09-11T13:15:02.572Z,8.75
2022-09-11T13:17:38.176Z,7.65
2022-09-11T13:20:05.241Z,6.28
2022-09-11T13:22:34.684Z,6.90
2022-09-11T13:25:16.383Z,7.32
2022-09-11T13:27:49.986Z,8.68
2022-09-11T13:30:19.549Z,6.60
2022-09-11T13:32:49.051Z,6.40
2022-09-11T13:35:23.972Z,7.10
2022-09-11T13:38:23.251Z,6.13
2022-09-11T13:40:59.093Z,8.70
2022-09-11T13:43:31.772Z,5.18
2022-09-11T13:46:16.927Z,6.07
2022-09-11T13:48:49.249Z,5.85
2022-09-11T13:51:21.293Z,10.65
2022-09-11T13:53:56.007Z,7.05
2022-09-11T13:56:51.451Z,5.95
2022-09-11T13:59:52.013Z,7.85
2022-09-11T14:02:24.959Z,6.55
2022-09-11T14:04:53.174Z,7.15
2022-09-11T14:07:25.280Z,8.85
2022-09-11T14:10:00.118Z,7.80
2022-09-11T14:12:28.125Z,9.15
2022-09-11T14:14:56.919Z,9.63
2022-09-11T14:17:23.903Z,8.57
2022-09-11T14:19:52.485Z,12.25
2022-09-11T14:22:26.557Z,9.82
2022-09-11T14:24:56.890Z,7.80
2022-09-11T14:27:36.650Z,8.82
2022-09-11T14:30:37.165Z,8.82
2022-09-11T14:33:18.054Z,6.15
2022-09-11T14:35:46.345Z,7.25
2022-09-11T14:38:14.315Z,4.50
2022-09-11T14:40:56.775Z,5.50
2022-09-11T14:43:26.866Z,4.40
2022-09-11T14:45:54.685Z,4.95
2022-09-11T14:48:21.547Z,3.30
2022-09-11T14:50:48.875Z,3.92
2022-09-11T14:53:18.788Z,4.82
2022-09-11T14:55:46.039Z,3.28
2022-09-11T14:58:13.100Z,3.60
2022-09-11T15:00:41.043Z,4.13
2022-09-11T15:03:07.932Z,3.22
2022-09-11T15:05:35.181Z,2.97
2022-09-11T15:08:03.501Z,3.15
2022-09-11T15:10:33.124Z,3.28
2022-09-11T15:13:00.106Z,3.42
2022-09-11T15:15:28.899Z,2.90
2022-09-11T15:17:56.041Z,3.83
2022-09-11T15:20:25.455Z,2.13
2022-09-11T15:22:52.262Z,2.55
2022-09-11T15:25:19.125Z,2.67
2022-09-11T15:27:49.508Z,2.63
2022-09-11T15:30:16.598Z,3.47
2022-09-11T15:32:43.717Z,2.42
2022-09-11T15:35:12.616Z,3.17
2022-09-11T15:37:40.170Z,2.88
2022-09-11T15:40:07.396Z,3.88
2022-09-11T15:42:39.362Z,3.53
2022-09-11T15:45:07.951Z,4.88
2022-09-11T15:47:34.949Z,4.97
2022-09-11T15:50:02.246Z,3.10
2022-09-11T15:52:29.558Z,3.72
2022-09-11T15:54:57.223Z,3.28
2022-09-11T15:57:25.517Z,3.47
2022-09-11T15:59:52.406Z,3.20
2022-09-11T16:02:21.552Z,3.13
2022-09-11T16:04:51.715Z,4.25
2022-09-11T16:07:20.067Z,3.85
2022-09-11T16:09:47.043Z,3.13
2022-09-11T16:12:14.244Z,3.60
2022-09-11T16:14:41.615Z,5.32
2022-09-11T16:17:08.550Z,4.30
2022-09-11T16:19:36.030Z,5.35
2022-09-11T16:22:05.216Z,4.03
2022-09-11T16:24:37.655Z,3.22
2022-09-11T16:27:07.630Z,4.90
2022-09-11T16:30:08.974Z,4.28
2022-09-11T16:32:28.539Z,4.13
2022-09-11T16:34:57.113Z,3.28
2022-09-11T16:37:25.058Z,2.63
2022-09-11T16:39:51.982Z,2.50
2022-09-11T16:42:21.271Z,3.67
2022-09-11T16:44:49.698Z,5.60
2022-09-11T16:47:17.033Z,3.42
2022-09-11T16:50:05.738Z,4.53
2022-09-11T16:52:32.164Z,5.13
2022-09-11T16:54:59.847Z,2.78
2022-09-11T16:57:27.556Z,2.47
2022-09-11T16:59:54.843Z,3.22
2022-09-11T17:02:22.012Z,3.80
2022-09-11T17:04:48.827Z,3.20
2022-09-11T17:07:15.899Z,2.83
2022-09-11T17:09:43.814Z,3.28
2022-09-11T17:12:11.553Z,3.63
2022-09-11T17:14:38.885Z,3.38
2022-09-11T17:17:05.899Z,3.03
2022-09-11T17:19:32.751Z,3.88
2022-09-11T17:22:00.161Z,3.28
2022-09-11T17:24:27.261Z,3.63
2022-09-11T17:26:54.088Z,3.45
2022-09-11T17:29:20.955Z,3.67
2022-09-11T17:31:48.004Z,3.95
2022-09-11T17:34:14.849Z,5.35
2022-09-11T17:36:41.730Z,3.97
2022-09-11T17:39:09.542Z,4.05
2022-09-11T17:41:36.519Z,3.15
2022-09-11T17:44:03.845Z,4.50
2022-09-11T17:46:31.054Z,3.22
2022-09-11T17:48:58.017Z,4.05
2022-09-11T17:51:27.935Z,3.80
2022-09-11T17:53:57.517Z,3.65
2022-09-11T17:56:30.875Z,4.28
2022-09-11T17:58:59.764Z,4.55
2022-09-11T18:01:28.220Z,4.80
2022-09-11T18:03:56.888Z,5.90
2022-09-11T18:06:36.136Z,6.95
2022-09-11T18:09:16.368Z,5.00
2022-09-11T18:11:54.631Z,4.93
2022-09-11T18:14:21.796Z,5.43
2022-09-11T18:16:49.325Z,6.80
2022-09-11T18:19:18.174Z,4.80
2022-09-11T18:21:49.401Z,4.57
2022-09-11T18:24:21.213Z,5.95
2022-09-11T18:26:50.139Z,6.13
2022-09-11T18:29:20.106Z,3.75
2022-09-11T18:31:50.101Z,3.50
2022-09-11T18:34:20.227Z,2.28
2022-09-11T18:36:47.132Z,2.72
2022-09-11T18:39:16.798Z,4.05
2022-09-11T18:41:44.805Z,3.03
2022-09-11T18:44:19.921Z,2.78
2022-09-11T18:46:48.252Z,2.45
2022-09-11T18:49:15.795Z,4.88
2022-09-11T18:51:42.784Z,2.13
2022-09-11T18:54:18.335Z,1.88
2022-09-11T18:56:45.615Z,1.98
2022-09-11T18:59:13.238Z,2.45
2022-09-11T19:01:41.301Z,2.10
2022-09-11T19:04:10.412Z,1.95
2022-09-11T19:06:38.831Z,2.83
2022-09-11T19:09:13.306Z,1.52
2022-09-11T19:11:40.738Z,2.50
2022-09-11T19:14:09.909Z,4.22
2022-09-11T19:16:38.328Z,2.53
2022-09-11T19:19:07.382Z,2.20
2022-09-11T19:21:34.511Z,2.72
2022-09-11T19:24:02.046Z,2.00
2022-09-11T19:26:31.745Z,2.25
2022-09-11T19:29:00.347Z,2.00
2022-09-11T19:31:29.782Z,5.25
2022-09-11T19:34:00.229Z,2.40
2022-09-11T19:36:30.133Z,2.55
2022-09-11T19:39:00.652Z,2.13
2022-09-11T19:41:37.379Z,1.38
2022-09-11T19:44:06.517Z,1.85
2022-09-11T19:46:34.969Z,1.02
2022-09-11T19:49:03.654Z,1.70
2022-09-11T19:51:33.238Z,1.40
2022-09-11T19:54:02.704Z,1.63
2022-09-11T19:56:30.455Z,2.35
2022-09-11T19:58:57.311Z,1.75
2022-09-11T20:01:26.436Z,2.97
2022-09-11T20:03:54.426Z,1.45
2022-09-11T20:06:23.706Z,1.63
2022-09-11T20:09:03.177Z,2.92
2022-09-11T20:11:38.951Z,1.45
2022-09-11T20:14:06.405Z,1.38
2022-09-11T20:16:33.702Z,2.30
2022-09-11T20:19:06.489Z,1.77
2022-09-11T20:21:35.271Z,2.00
2022-09-11T20:24:02.565Z,3.15
2022-09-11T20:26:30.366Z,2.90
2022-09-11T20:29:02.989Z,4.03
2022-09-11T20:31:32.349Z,2.75
2022-09-11T20:34:00.760Z,1.95
2022-09-11T20:36:30.026Z,4.22
2022-09-11T20:39:00.112Z,1.70
2022-09-11T20:41:29.811Z,2.85
2022-09-11T20:44:00.392Z,2.05
2022-09-11T20:46:27.421Z,2.05
2022-09-11T20:48:54.585Z,2.85
2022-09-11T20:51:22.677Z,3.95
2022-09-11T20:53:50.128Z,3.60
2022-09-11T20:56:20.627Z,2.05
2022-09-11T20:58:48.769Z,2.10
2022-09-11T21:01:19.089Z,2.72
2022-09-11T21:03:50.490Z,1.50
2022-09-11T21:06:20.045Z,2.13
2022-09-11T21:08:51.515Z,3.22
2022-09-11T21:11:18.699Z,1.40
2022-09-11T21:13:45.636Z,2.47
2022-09-11T21:16:14.742Z,1.65
2022-09-11T21:18:49.341Z,1.65
2022-09-11T21:21:17.039Z,1.73
2022-09-11T21:23:43.981Z,1.42
2022-09-11T21:26:12.639Z,2.10
2022-09-11T21:28:39.998Z,1.70
2022-09-11T21:31:07.313Z,2.67
2022-09-11T21:33:35.752Z,1.75
2022-09-11T21:36:03.040Z,1.80
2022-09-11T21:38:30.007Z,2.65
2022-09-11T21:40:59.393Z,2.83
2022-09-11T21:43:26.869Z,2.40
2022-09-11T21:45:54.063Z,2.30
2022-09-11T21:48:21.374Z,1.63
2022-09-11T21:50:48.318Z,2.38
2022-09-11T21:53:15.149Z,2.90
2022-09-11T21:55:43.973Z,2.13
2022-09-11T21:58:18.830Z,1.23
2022-09-11T22:00:48.131Z,1.52
2022-09-11T22:03:16.721Z,1.52
2022-09-11T22:05:44.312Z,2.95
2022-09-11T22:08:12.827Z,4.43
2022-09-11T22:10:47.015Z,1.52
2022-09-11T22:13:14.629Z,1.90
2022-09-11T22:15:47.047Z,3.95
2022-09-11T22:18:14.375Z,2.63
2022-09-11T22:20:42.088Z,3.38
2022-09-11T22:23:14.907Z,2.58
2022-09-11T22:25:42.043Z,2.90
2022-09-11T22:28:08.893Z,1.67
2022-09-11T22:30:35.871Z,3.85
2022-09-11T22:33:02.954Z,1.50
2022-09-11T22:35:33.985Z,1.88
2022-09-11T22:38:00.794Z,1.63
2022-09-11T22:40:27.837Z,1.63
2022-09-11T22:42:54.639Z,1.55
2022-09-11T22:45:21.480Z,1.23
2022-09-11T22:47:48.539Z,1.50
2022-09-11T22:50:15.729Z,1.60
2022-09-11T22:52:42.703Z,3.25
2022-09-11T22:55:10.763Z,1.45
2022-09-11T22:57:39.331Z,1.50
2022-09-11T23:00:09.041Z,3.38
2022-09-11T23:02:36.999Z,3.50
2022-09-11T23:05:24.426Z,3.15
2022-09-11T23:07:52.399Z,2.92
2022-09-11T23:10:21.904Z,1.30
2022-09-11T23:12:48.709Z,1.42
2022-09-11T23:15:16.500Z,1.92
2022-09-11T23:17:44.124Z,1.67
2022-09-11T23:20:10.973Z,3.63
2022-09-11T23:22:38.317Z,1.77
2022-09-11T23:25:05.871Z,2.38
2022-09-11T23:27:33.241Z,1.40
2022-09-11T23:30:00.286Z,2.28
2022-09-11T23:32:27.087Z,1.70
2022-09-11T23:34:53.897Z,3.47
2022-09-11T23:37:21.101Z,3.83
2022-09-11T23:39:48.138Z,1.95
2022-09-11T23:42:14.942Z,2.70
2022-09-11T23:44:42.007Z,1.75
2022-09-11T23:47:09.009Z,3.45
2022-09-11T23:49:36.597Z,2.17
2022-09-11T23:52:04.914Z,2.42
2022-09-11T23:54:31.709Z,3.10
2022-09-11T23:56:59.081Z,2.67
2022-09-11T23:59:26.537Z,5.10
